Val Verde, Texas
Current Conditions -  °F | °C
As of 9:35 AM on Thursday 30 Oct 2014 (Local Time) from KT35 Reporting Station
Scattered Clouds Scattered Clouds  
Wind Chill: 60°   Ceiling: Unl
Heat Index: 60°   Visibility: 10mi
Dew Point: 54°   Wind: 0mph
Humidity: 78%   Direction: NA
Pressure: 30.17"   Gusts: NA
Location:  30.8953°N, 97.127°W
Report Text: KT35 301435Z AUTO 00000KT 10SM SCT055 SCT065 16/12 A3017 RMK AO2 T01580120
Loading
Personal Weather Stations






























Interactive Weather Map
Tropical Storm Tracking
New forecast layout! Learn more

10-Day Weather Forecast

Advertisements
Track Severe Weather on mobile